Time;durP1;ratioP1;P1;durP2;ratioP2;P2;SDS_P1;SDS_P2;PMS_P1;PMS_P2;Temp;Humidity;BMP_temperature;BMP_pressure;BME280_temperature;BME280_humidity;BME280_pressure;Samples;Min_cycle;Max_cycle;Signal;HPM_P1;HPM_P2
2022/05/20 00:00:44;;;;;;;6.18;4.13;;;16.10;99.90;;;;;;4315256;28;10000610;-73
2022/05/20 00:03:10;;;;;;;5.82;4.22;;;16.10;99.90;;;;;;5008322;28;21682;-72
2022/05/20 00:05:36;;;;;;;7.72;4.70;;;16.10;99.90;;;;;;5009757;28;20037;-72
2022/05/20 00:08:03;;;;;;;6.75;4.82;;;16.10;99.90;;;;;;5007392;28;20595;-72
2022/05/20 00:10:28;;;;;;;5.97;4.30;;;16.00;99.90;;;;;;5011602;28;20029;-73
2022/05/20 00:12:54;;;;;;;10.38;5.15;;;16.00;99.90;;;;;;5009736;28;20040;-73
2022/05/20 00:15:24;;;;;;;8.18;5.60;;;16.00;99.90;;;;;;5004939;28;20025;-73
2022/05/20 00:17:49;;;;;;;8.10;4.70;;;16.00;99.90;;;;;;5012582;28;20033;-73
2022/05/20 00:20:18;;;;;;;6.70;4.05;;;16.00;99.90;;;;;;5010065;28;20036;-72
2022/05/20 00:22:43;;;;;;;7.13;4.53;;;16.00;99.90;;;;;;5006540;28;20285;-73
2022/05/20 00:27:55;;;;;;;5.05;4.00;;;16.00;99.90;;;;;;5007461;28;20588;-72
2022/05/20 00:30:21;;;;;;;4.97;3.83;;;16.00;99.90;;;;;;5008840;28;20037;-73
2022/05/20 00:32:47;;;;;;;4.65;4.10;;;16.00;99.90;;;;;;5011234;28;20056;-72
2022/05/20 00:35:14;;;;;;;5.70;4.07;;;15.90;99.90;;;;;;5003919;28;20108;-72
2022/05/20 00:37:43;;;;;;;6.70;3.70;;;15.90;99.90;;;;;;5006308;28;20040;-72
2022/05/20 00:40:13;;;;;;;9.52;4.65;;;15.90;99.90;;;;;;5005511;28;20026;-72
2022/05/20 00:42:40;;;;;;;5.35;3.80;;;15.90;99.90;;;;;;5005363;28;20029;-72
2022/05/20 00:45:07;;;;;;;6.10;4.50;;;15.90;99.90;;;;;;5008455;28;20041;-72
2022/05/20 00:47:33;;;;;;;5.75;4.28;;;15.90;99.90;;;;;;5011746;28;20063;-72
2022/05/20 00:50:04;;;;;;;11.35;5.10;;;15.80;99.90;;;;;;4997533;28;20039;-73
2022/05/20 00:52:32;;;;;;;9.05;5.03;;;15.80;99.90;;;;;;5003600;28;20117;-72
2022/05/20 00:55:02;;;;;;;6.82;4.65;;;15.90;99.90;;;;;;5005826;28;20037;-72
2022/05/20 00:57:33;;;;;;;8.45;4.93;;;15.90;99.90;;;;;;5007357;28;20045;-72
2022/05/20 01:00:08;;;;;;;9.77;5.85;;;15.90;99.90;;;;;;5006316;28;20048;-72
2022/05/20 01:02:34;;;;;;;10.32;6.90;;;15.80;99.90;;;;;;5010820;28;20575;-73
2022/05/20 01:05:03;;;;;;;11.30;5.95;;;15.70;99.90;;;;;;5008125;28;20060;-73
2022/05/20 01:07:31;;;;;;;13.43;7.05;;;15.80;99.90;;;;;;5007787;28;20743;-72
2022/05/20 01:09:57;;;;;;;8.25;5.57;;;15.70;99.90;;;;;;5002554;28;20445;-73
2022/05/20 01:12:24;;;;;;;8.18;5.97;;;15.70;99.90;;;;;;5007847;28;20037;-72
2022/05/20 01:14:51;;;;;;;7.65;5.20;;;15.70;99.90;;;;;;5003191;28;20259;-73
2022/05/20 01:17:18;;;;;;;7.18;5.70;;;15.70;99.90;;;;;;5006228;28;21922;-73
2022/05/20 01:19:53;;;;;;;11.35;6.30;;;15.70;99.90;;;;;;5003196;28;20029;-73
2022/05/20 01:22:25;;;;;;;8.77;6.00;;;15.70;99.90;;;;;;5004751;28;20026;-72
2022/05/20 01:24:51;;;;;;;6.40;5.18;;;15.80;99.90;;;;;;5005395;28;20481;-73
2022/05/20 01:27:16;;;;;;;13.50;8.35;;;15.80;99.90;;;;;;5009498;28;20075;-73
2022/05/20 01:29:42;;;;;;;11.00;7.65;;;15.80;99.90;;;;;;5003375;28;20053;-73
2022/05/20 01:32:08;;;;;;;9.98;7.38;;;15.80;99.90;;;;;;5008454;28;20144;-72
2022/05/20 01:34:33;;;;;;;14.90;7.88;;;15.80;99.90;;;;;;5007485;28;20521;-73
2022/05/20 01:36:59;;;;;;;10.00;7.10;;;15.80;99.90;;;;;;5008838;28;20494;-72
2022/05/20 01:39:24;;;;;;;9.27;7.20;;;15.80;99.90;;;;;;4998661;28;20061;-73
2022/05/20 01:41:54;;;;;;;10.70;8.02;;;15.90;99.90;;;;;;5010069;28;20113;-73
2022/05/20 01:44:25;;;;;;;9.35;7.60;;;15.80;99.90;;;;;;5009235;28;20056;-72
2022/05/20 01:47:31;;;;;;;10.50;8.38;;;15.80;99.90;;;;;;5009259;28;20108;-72
2022/05/20 01:50:10;;;;;;;14.45;9.27;;;15.80;99.90;;;;;;4989457;28;20089;-72
2022/05/20 01:53:05;;;;;;;12.98;9.13;;;15.80;99.90;;;;;;5006210;28;20580;-72
2022/05/20 01:55:54;;;;;;;12.63;9.73;;;15.70;99.90;;;;;;5005123;28;20037;-72
2022/05/20 01:58:29;;;;;;;14.48;10.15;;;15.70;99.90;;;;;;5006415;28;20037;-72
2022/05/20 02:00:59;;;;;;;11.90;8.98;;;15.70;99.90;;;;;;5002841;28;20037;-72
2022/05/20 02:03:39;;;;;;;13.27;10.23;;;15.70;99.90;;;;;;5007671;28;20037;-72
2022/05/20 02:06:25;;;;;;;18.65;11.57;;;15.70;99.90;;;;;;5008172;28;20592;-72
2022/05/20 02:08:59;;;;;;;14.55;11.07;;;15.70;99.90;;;;;;4995955;28;20049;-72
2022/05/20 02:11:31;;;;;;;15.80;11.13;;;15.70;99.90;;;;;;5009258;28;20033;-72
2022/05/20 02:14:18;;;;;;;48.33;11.82;;;15.70;99.90;;;;;;5011358;28;20029;-72
2022/05/20 02:16:49;;;;;;;22.48;12.13;;;15.60;99.90;;;;;;5004001;28;20752;-72
2022/05/20 02:19:32;;;;;;;26.90;11.13;;;15.60;99.90;;;;;;5004438;28;21108;-72
2022/05/20 02:22:02;;;;;;;11.93;10.52;;;15.60;99.90;;;;;;5004237;28;20484;-72
2022/05/20 02:24:31;;;;;;;19.05;11.57;;;15.60;99.90;;;;;;5008160;28;20120;-73
2022/05/20 02:27:04;;;;;;;11.55;10.35;;;15.60;99.90;;;;;;5005268;28;20622;-72
2022/05/20 02:30:07;;;;;;;11.10;9.98;;;15.50;99.90;;;;;;5006013;28;20076;-73
2022/05/20 02:32:53;;;;;;;32.13;11.95;;;15.60;99.90;;;;;;5005487;28;20092;-72
2022/05/20 02:35:19;;;;;;;12.00;10.70;;;15.50;99.90;;;;;;5005407;28;20874;-72
2022/05/20 02:37:45;;;;;;;42.53;12.55;;;15.50;99.90;;;;;;5007751;28;20033;-72
2022/05/20 02:40:15;;;;;;;67.00;13.50;;;15.60;99.90;;;;;;5005884;28;20025;-73
2022/05/20 02:42:41;;;;;;;28.33;12.23;;;15.50;99.90;;;;;;5005434;28;20514;-73
2022/05/20 02:45:08;;;;;;;15.75;10.75;;;15.60;99.90;;;;;;5004290;28;20119;-73
2022/05/20 02:47:34;;;;;;;16.63;11.65;;;15.50;99.90;;;;;;5008762;28;20048;-73
2022/05/20 02:50:07;;;;;;;22.30;12.25;;;15.50;99.90;;;;;;5003578;28;20095;-72
2022/05/20 02:52:33;;;;;;;34.13;12.75;;;15.50;99.90;;;;;;5009795;28;20118;-73
2022/05/20 02:54:58;;;;;;;11.52;10.38;;;15.50;99.90;;;;;;5006043;28;20460;-73
2022/05/20 02:57:24;;;;;;;26.88;11.57;;;15.50;99.90;;;;;;5006736;28;20021;-73
2022/05/20 03:05:19;;;;;;;12.60;11.20;;;15.40;99.90;;;;;;5002566;28;20309;-73
2022/05/20 03:07:45;;;;;;;16.70;10.73;;;15.50;99.90;;;;;;5006503;28;20033;-72
2022/05/20 03:10:11;;;;;;;24.27;10.45;;;15.50;99.90;;;;;;5004006;28;20063;-72
2022/05/20 03:12:37;;;;;;;12.35;10.07;;;15.50;99.90;;;;;;5005836;28;20370;-72
2022/05/20 03:15:09;;;;;;;15.00;10.00;;;15.50;99.90;;;;;;5002766;28;20040;-72
2022/05/20 03:17:34;;;;;;;19.27;10.43;;;15.50;99.90;;;;;;5001983;28;20512;-72
2022/05/20 03:20:01;;;;;;;11.15;9.63;;;15.50;99.90;;;;;;5006027;28;20807;-72
2022/05/20 03:22:26;;;;;;;11.27;10.10;;;15.50;99.90;;;;;;5007567;28;20122;-72
2022/05/20 03:24:52;;;;;;;12.80;11.05;;;15.50;99.90;;;;;;4999374;28;20033;-72
2022/05/20 03:27:17;;;;;;;13.32;10.50;;;15.50;99.90;;;;;;4996429;28;20057;-72
2022/05/20 03:29:44;;;;;;;12.35;9.45;;;15.50;99.90;;;;;;5002746;28;20430;-72
2022/05/20 03:32:10;;;;;;;10.05;9.05;;;15.60;99.90;;;;;;5002211;28;20029;-72
2022/05/20 03:34:38;;;;;;;11.68;10.23;;;15.50;99.90;;;;;;5005305;28;20087;-72
2022/05/20 03:37:05;;;;;;;11.40;9.65;;;;;;;;;;5003438;28;20637;-72
2022/05/20 03:39:31;;;;;;;11.07;9.93;;;;;;;;;;5003596;28;21242;-72
2022/05/20 03:41:57;;;;;;;10.20;9.15;;;;;;;;;;5001491;28;20036;-71
2022/05/20 03:44:23;;;;;;;19.30;10.90;;;;;;;;;;5005139;28;20054;-72
2022/05/20 03:46:53;;;;;;;12.60;11.30;;;;;;;;;;5001818;28;20120;-72
2022/05/20 03:49:21;;;;;;;13.25;10.35;;;;;;;;;;5003717;28;20075;-72
2022/05/20 03:51:47;;;;;;;10.90;9.82;;;;;;;;;;4999698;28;20268;-71
2022/05/20 03:54:17;;;;;;;14.15;10.00;;;;;;;;;;5004792;28;20217;-72
2022/05/20 03:56:43;;;;;;;10.82;9.70;;;;;;;;;;5002193;28;20061;-71
2022/05/20 03:59:09;;;;;;;11.10;9.95;;;;;;;;;;5005727;28;20246;-71
2022/05/20 04:04:21;;;;;;;11.60;9.50;;;;;;;;;;5004211;28;20152;-72
2022/05/20 04:06:46;;;;;;;11.48;9.75;;;15.90;99.90;;;;;;5001876;28;22067;-72
2022/05/20 04:09:12;;;;;;;12.18;10.50;;;15.90;99.90;;;;;;5003974;28;20029;-72
2022/05/20 04:11:38;;;;;;;18.58;11.57;;;15.90;99.90;;;;;;5004584;28;20029;-72
2022/05/20 04:14:04;;;;;;;11.50;9.77;;;16.00;99.90;;;;;;5008399;28;20042;-72
2022/05/20 04:16:30;;;;;;;33.10;12.25;;;15.90;99.90;;;;;;5002156;28;20033;-71
2022/05/20 04:18:57;;;;;;;12.75;11.00;;;15.90;99.90;;;;;;5002777;28;20033;-71
2022/05/20 04:21:23;;;;;;;17.02;11.77;;;15.80;99.90;;;;;;5005131;28;20474;-72
2022/05/20 04:23:49;;;;;;;20.75;11.65;;;15.80;99.90;;;;;;5000100;28;20546;-72
2022/05/20 04:26:14;;;;;;;17.92;12.05;;;15.80;99.90;;;;;;5005363;28;20038;-71
2022/05/20 04:28:40;;;;;;;15.23;12.10;;;15.90;99.90;;;;;;5000369;28;20053;-72
2022/05/20 04:31:08;;;;;;;14.35;12.77;;;15.80;99.90;;;;;;5005319;28;20033;-72
2022/05/20 04:33:34;;;;;;;32.45;14.05;;;15.90;99.90;;;;;;4996977;28;20056;-72
2022/05/20 04:35:59;;;;;;;16.13;12.35;;;15.90;99.90;;;;;;5001391;28;20025;-71
2022/05/20 04:38:25;;;;;;;15.13;12.15;;;15.90;99.90;;;;;;4997479;28;20107;-72
2022/05/20 04:49:06;;;;;;;15.07;13.15;;;;;;;;;;5032057;28;20410;-74
2022/05/20 04:51:35;;;;;;;65.45;14.32;;;;;;;;;;5035978;28;20457;-74
2022/05/20 04:56:46;;;;;;;15.60;13.23;;;;;;;;;;5034999;28;20111;-73
2022/05/20 04:59:12;;;;;;;36.15;14.32;;;;;;;;;;5031282;28;20994;-74
2022/05/20 05:01:39;;;;;;;15.02;13.25;;;;;;;;;;5034523;28;20054;-73
2022/05/20 05:04:06;;;;;;;14.57;12.35;;;16.10;99.90;;;;;;5029408;28;20513;-74
2022/05/20 05:06:31;;;;;;;22.63;13.65;;;16.10;99.90;;;;;;5032822;28;20036;-74
2022/05/20 05:08:57;;;;;;;13.40;11.68;;;16.10;99.90;;;;;;5035653;28;20040;-74
2022/05/20 05:11:22;;;;;;;18.85;13.88;;;16.10;99.90;;;;;;5035828;28;21224;-74
2022/05/20 05:13:48;;;;;;;20.88;13.27;;;16.20;99.90;;;;;;5017407;28;20037;-74
2022/05/20 05:16:14;;;;;;;14.98;12.82;;;16.20;99.90;;;;;;4996099;28;20183;-74
2022/05/20 05:18:39;;;;;;;16.40;13.40;;;16.30;99.90;;;;;;5001509;28;20038;-74
2022/05/20 05:21:05;;;;;;;15.98;14.25;;;16.20;99.90;;;;;;4992808;28;20029;-74
2022/05/20 05:23:31;;;;;;;14.15;12.65;;;16.30;99.90;;;;;;4999317;28;20060;-74
2022/05/20 05:25:57;;;;;;;15.88;12.60;;;;;;;;;;5002517;28;20033;-74
2022/05/20 05:28:23;;;;;;;19.02;13.57;;;;;;;;;;5013667;28;20098;-75
2022/05/20 05:30:50;;;;;;;21.65;14.88;;;;;;;;;;5027168;28;20035;-74
2022/05/20 05:33:17;;;;;;;14.30;12.75;;;;;;;;;;5025398;28;20032;-74
2022/05/20 05:35:43;;;;;;;13.57;11.88;;;;;;;;;;5024819;28;20041;-74
2022/05/20 05:38:09;;;;;;;13.65;11.88;;;;;;;;;;5024813;28;20029;-74
2022/05/20 05:40:35;;;;;;;14.07;11.23;;;;;;;;;;5019092;28;20741;-74
2022/05/20 05:43:03;;;;;;;19.77;14.20;;;;;;;;;;5025233;28;20049;-74
2022/05/20 05:45:30;;;;;;;15.98;13.95;;;;;;;;;;5023623;28;20172;-74
2022/05/20 05:47:59;;;;;;;17.02;13.43;;;;;;;;;;5026845;28;20051;-74
2022/05/20 05:50:26;;;;;;;20.63;15.23;;;;;;;;;;5023563;28;20078;-74
2022/05/20 05:52:56;;;;;;;16.70;14.90;;;;;;;;;;5026722;28;20061;-74
2022/05/20 05:55:22;;;;;;;16.88;13.77;;;;;;;;;;5025589;28;20025;-74
2022/05/20 05:57:48;;;;;;;15.73;13.90;;;;;;;;;;5029210;28;22010;-73
2022/05/20 06:00:15;;;;;;;15.68;13.68;;;;;;;;;;5017865;28;20684;-73
2022/05/20 06:02:41;;;;;;;15.85;13.35;;;;;;;;;;5026742;28;20489;-72
2022/05/20 06:05:07;;;;;;;17.85;13.63;;;;;;;;;;5028100;28;20028;-73
2022/05/20 06:07:33;;;;;;;14.40;12.80;;;;;;;;;;5022527;28;20285;-73
2022/05/20 06:09:59;;;;;;;15.95;13.68;;;;;;;;;;5023230;28;20409;-72
2022/05/20 06:12:25;;;;;;;17.88;14.27;;;;;;;;;;5026652;28;20056;-72
2022/05/20 06:14:51;;;;;;;15.00;12.55;;;;;;;;;;5027599;28;20052;-73
2022/05/20 06:17:17;;;;;;;16.48;12.88;;;;;;;;;;5025232;28;20704;-73
2022/05/20 06:19:43;;;;;;;15.55;13.13;;;;;;;;;;5021125;28;20338;-73
2022/05/20 06:22:10;;;;;;;16.15;13.15;;;;;;;;;;5023295;28;20684;-73
2022/05/20 06:24:36;;;;;;;18.77;14.85;;;;;;;;;;5024559;28;20029;-72
2022/05/20 06:27:03;;;;;;;19.20;14.25;;;;;;;;;;5022907;28;20037;-73
2022/05/20 06:29:29;;;;;;;16.92;14.45;;;;;;;;;;5006362;28;20421;-72
2022/05/20 06:31:55;;;;;;;17.02;13.80;;;;;;;;;;5010542;28;20049;-73
2022/05/20 06:34:22;;;;;;;16.55;13.93;;;;;;;;;;5007288;28;20045;-73
2022/05/20 06:39:51;;;;;;;16.80;12.82;;;;;;;;;;5007776;28;20099;-72
2022/05/20 06:42:19;;;;;;;21.17;15.32;;;;;;;;;;5011110;28;20108;-73
2022/05/20 06:44:45;;;;;;;16.08;14.32;;;;;;;;;;5006797;28;20033;-72
2022/05/20 06:47:12;;;;;;;17.50;14.48;;;;;;;;;;5004424;28;20712;-72
2022/05/20 06:49:38;;;;;;;17.98;15.40;;;;;;;;;;5002904;28;20495;-72
2022/05/20 06:52:04;;;;;;;23.25;17.17;;;;;;;;;;5005651;28;20026;-72
2022/05/20 06:54:30;;;;;;;21.95;16.67;;;;;;;;;;5008066;28;20124;-72
2022/05/20 06:56:56;;;;;;;19.30;14.27;;;;;;;;;;5005392;28;20029;-72
2022/05/20 06:59:23;;;;;;;18.38;14.13;;;;;;;;;;5007012;28;20105;-72
2022/05/20 07:01:50;;;;;;;17.58;14.13;;;;;;;;;;4999507;28;20063;-72
2022/05/20 07:04:16;;;;;;;19.80;15.90;;;;;;;;;;5002224;28;20087;-72
2022/05/20 07:06:41;;;;;;;19.75;15.50;;;17.80;99.90;;;;;;4994802;28;20057;-72
2022/05/20 07:09:07;;;;;;;22.38;16.30;;;17.90;99.90;;;;;;4996494;28;20124;-72
2022/05/20 07:11:33;;;;;;;18.42;15.82;;;18.00;99.90;;;;;;5002076;28;20203;-72
2022/05/20 07:13:58;;;;;;;23.50;17.13;;;17.90;99.90;;;;;;5003155;28;20059;-72
2022/05/20 07:16:27;;;;;;;20.75;17.20;;;18.00;99.90;;;;;;5003781;28;20477;-72
2022/05/20 07:18:53;;;;;;;18.27;15.18;;;18.00;99.90;;;;;;5003245;28;20030;-73
2022/05/20 07:21:19;;;;;;;19.42;16.33;;;18.10;99.90;;;;;;5005387;28;20029;-72
2022/05/20 07:23:45;;;;;;;19.17;15.77;;;18.20;99.90;;;;;;5002529;28;20033;-72
2022/05/20 07:26:13;;;;;;;20.27;16.38;;;18.30;99.90;;;;;;4999362;28;20170;-73
2022/05/20 07:28:38;;;;;;;21.95;17.45;;;18.40;99.90;;;;;;5009898;28;20408;-72
2022/05/20 07:31:06;;;;;;;17.40;14.65;;;18.50;99.90;;;;;;5020603;28;20025;-72
2022/05/20 07:33:32;;;;;;;17.08;13.50;;;18.60;99.90;;;;;;5020763;28;20605;-72
2022/05/20 07:35:59;;;;;;;21.40;16.90;;;18.60;99.90;;;;;;5018402;28;21210;-73
2022/05/20 07:38:25;;;;;;;19.48;14.90;;;;;;;;;;5021731;28;20032;-72
2022/05/20 07:40:51;;;;;;;15.90;14.07;;;;;;;;;;5026396;28;20625;-75
2022/05/20 07:43:20;;;;;;;17.30;14.27;;;;;;;;;;5019622;28;20335;-80
2022/05/20 07:45:46;;;;;;;18.45;15.68;;;;;;;;;;5020493;28;20677;-82
2022/05/20 07:48:12;;;;;;;18.20;16.23;;;;;;;;;;5019849;28;20214;-82
2022/05/20 07:50:42;;;;;;;18.38;15.65;;;;;;;;;;5022804;28;22640;-81
2022/05/20 07:53:21;;;;;;;20.13;16.55;;;;;;;;;;5017638;28;20032;-81
2022/05/20 07:55:58;;;;;;;17.60;15.52;;;;;;;;;;5025272;28;20576;-82
2022/05/20 07:58:33;;;;;;;17.27;14.68;;;19.30;99.90;;;;;;5019606;28;20036;-80
2022/05/20 08:00:59;;;;;;;19.27;14.98;;;19.70;99.90;;;;;;5020234;28;20389;-82
2022/05/20 08:06:19;;;;;;;16.42;13.77;;;20.10;99.90;;;;;;5019047;28;20090;-83
2022/05/20 08:08:45;;;;;;;18.75;14.98;;;20.50;99.90;;;;;;5022860;28;20029;-84
2022/05/20 08:11:11;;;;;;;17.23;14.20;;;20.90;99.90;;;;;;5026370;28;20718;-83
2022/05/20 08:13:36;;;;;;;16.42;13.40;;;21.10;99.90;;;;;;5023662;28;20037;-83
2022/05/20 08:16:02;;;;;;;17.58;15.00;;;21.20;99.90;;;;;;5024677;28;20416;-83
2022/05/20 08:18:28;;;;;;;16.92;13.85;;;21.20;99.90;;;;;;5020575;28;20028;-83
2022/05/20 08:20:55;;;;;;;15.45;13.93;;;21.20;99.90;;;;;;5022642;28;20123;-78
2022/05/20 08:23:21;;;;;;;18.63;13.45;;;21.30;99.90;;;;;;5028322;28;20036;-80
2022/05/20 08:25:46;;;;;;;16.27;14.05;;;21.40;99.90;;;;;;5029453;28;20487;-74
2022/05/20 08:28:12;;;;;;;17.98;16.05;;;21.40;99.90;;;;;;5025554;28;20481;-74
2022/05/20 08:30:38;;;;;;;17.23;13.90;;;21.40;99.90;;;;;;5026321;28;20041;-74
2022/05/20 08:33:04;;;;;;;18.10;13.82;;;21.40;99.90;;;;;;5024080;28;20038;-75
2022/05/20 08:35:30;;;;;;;14.82;13.30;;;21.60;99.90;;;;;;5030870;28;20040;-75
2022/05/20 08:37:55;;;;;;;19.52;15.52;;;21.80;99.90;;;;;;5033142;28;20029;-75
2022/05/20 08:40:22;;;;;;;15.00;13.30;;;21.80;99.90;;;;;;5031252;28;20035;-74
2022/05/20 08:42:52;;;;;;;15.05;13.07;;;21.80;99.90;;;;;;5031996;28;20685;-74
2022/05/20 08:45:20;;;;;;;16.00;13.43;;;21.70;99.90;;;;;;5028521;28;20080;-75
2022/05/20 08:47:48;;;;;;;16.05;13.90;;;21.60;99.90;;;;;;5031146;28;20072;-74
2022/05/20 08:50:16;;;;;;;15.30;12.98;;;21.60;99.90;;;;;;5028477;28;20409;-74
2022/05/20 08:52:42;;;;;;;16.83;13.40;;;21.70;99.90;;;;;;5031465;28;21199;-75
2022/05/20 08:55:10;;;;;;;17.15;13.88;;;21.60;99.90;;;;;;5029483;28;22004;-75
2022/05/20 08:57:36;;;;;;;15.57;13.93;;;21.90;99.90;;;;;;5027983;28;20029;-74
2022/05/20 09:00:05;;;;;;;14.73;13.23;;;22.20;99.90;;;;;;5028560;28;20082;-75
2022/05/20 09:02:31;;;;;;;13.73;12.30;;;22.50;99.90;;;;;;5032605;28;20052;-74
2022/05/20 09:04:57;;;;;;;13.48;11.77;;;22.80;99.90;;;;;;5031635;28;20021;-75
2022/05/20 09:07:23;;;;;;;15.30;13.45;;;22.90;99.90;;;;;;5030191;28;20047;-74
2022/05/20 09:09:48;;;;;;;16.55;13.07;;;22.90;99.90;;;;;;5029681;28;20338;-75
2022/05/20 09:12:38;;;;;;;15.43;12.63;;;23.00;99.90;;;;;;5032676;28;20029;-76
2022/05/20 09:18:25;;;;;;;14.45;12.90;;;23.50;99.90;;;;;;5030037;28;20547;-73
2022/05/20 09:20:52;;;;;;;14.80;13.05;;;23.60;99.90;;;;;;5015346;28;20130;-73
2022/05/20 09:23:20;;;;;;;14.15;12.57;;;23.70;99.90;;;;;;5026293;28;20044;-73
2022/05/20 09:26:06;;;;;;;16.50;13.75;;;23.90;99.90;;;;;;5027838;28;20041;-76
2022/05/20 09:28:47;;;;;;;14.98;13.35;;;23.80;99.90;;;;;;5014965;28;20766;-75
2022/05/20 09:31:50;;;;;;;19.10;16.13;;;23.60;99.90;;;;;;5000684;28;20060;-73
2022/05/20 09:34:27;;;;;;;17.13;13.57;;;23.40;99.90;;;;;;5001699;28;20053;-74
2022/05/20 09:37:13;;;;;;;15.68;14.07;;;23.30;99.90;;;;;;5006465;28;20116;-73
2022/05/20 09:39:44;;;;;;;17.45;14.40;;;23.20;99.90;;;;;;5005177;28;20088;-73
2022/05/20 09:42:17;;;;;;;15.88;14.07;;;23.20;99.90;;;;;;5005295;28;20025;-74
2022/05/20 09:44:49;;;;;;;15.15;12.82;;;23.20;99.90;;;;;;5008399;28;20040;-74
2022/05/20 09:47:41;;;;;;;12.27;9.90;;;23.10;99.90;;;;;;5010991;28;20053;-73
2022/05/20 09:50:28;;;;;;;11.73;10.52;;;23.20;99.90;;;;;;5005060;28;20595;-73
2022/05/20 09:53:01;;;;;;;11.05;9.95;;;23.30;99.90;;;;;;5007632;28;20037;-73
2022/05/20 09:55:31;;;;;;;;;;;23.50;99.90;;;;;;5010230;28;20108;-75
2022/05/20 09:58:12;;;;;;;12.90;11.02;;;23.80;99.90;;;;;;5008274;28;19913;-74
2022/05/20 10:00:41;;;;;;;9.45;8.45;;;24.00;99.90;;;;;;5003013;28;20754;-74
2022/05/20 10:03:12;;;;;;;11.50;8.20;;;24.00;99.90;;;;;;5007885;28;20022;-73
2022/05/20 10:05:47;;;;;;;9.52;7.30;;;24.00;99.90;;;;;;5008036;28;20037;-73
2022/05/20 10:08:31;;;;;;;7.05;6.45;;;23.90;99.90;;;;;;5002640;28;20083;-75
2022/05/20 10:11:06;;;;;;;8.38;7.57;;;23.90;99.90;;;;;;5007777;28;20493;-74
2022/05/20 10:13:44;;;;;;;7.15;6.45;;;23.80;99.90;;;;;;5008697;28;20034;-74
2022/05/20 10:16:41;;;;;;;7.00;6.30;;;24.00;99.90;;;;;;5009351;28;20048;-73
2022/05/20 10:19:25;;;;;;;6.82;6.10;;;24.20;99.90;;;;;;5006803;28;20048;-73
2022/05/20 10:22:24;;;;;;;8.38;6.20;;;24.60;99.90;;;;;;5009689;28;20022;-74
2022/05/20 10:25:12;;;;;;;8.02;5.88;;;24.60;99.90;;;;;;5007447;28;20036;-74
2022/05/20 10:34:08;;;;;;;6.63;5.80;;;24.90;99.90;;;;;;5028219;28;20590;-74
2022/05/20 10:37:01;;;;;;;7.88;7.07;;;25.10;99.90;;;;;;5028016;28;20064;-73
2022/05/20 10:40:06;;;;;;;8.45;6.70;;;25.20;99.90;;;;;;4990016;28;21336;-73
2022/05/20 10:43:03;;;;;;;6.63;6.03;;;25.30;99.90;;;;;;5012675;28;20489;-73
2022/05/20 10:48:36;;;;;;;6.22;5.57;;;25.10;99.90;;;;;;5024593;28;20067;-74
2022/05/20 10:51:35;;;;;;;6.78;5.85;;;24.90;99.90;;;;;;5026348;28;20037;-74
2022/05/20 10:54:27;;;;;;;7.20;6.50;;;24.70;99.90;;;;;;5022114;28;20029;-75
2022/05/20 10:57:30;;;;;;;9.50;6.95;;;24.40;99.90;;;;;;5025055;28;20626;-74
2022/05/20 11:00:19;;;;;;;8.20;6.10;;;24.40;99.90;;;;;;5032705;28;20033;-74
2022/05/20 11:02:57;;;;;;;6.75;6.15;;;24.40;99.90;;;;;;5037135;28;20037;-74
2022/05/20 11:05:25;;;;;;;6.65;5.70;;;24.40;99.90;;;;;;5041604;28;20030;-73
2022/05/20 11:08:06;;;;;;;6.00;5.20;;;24.60;99.90;;;;;;5033623;28;20567;-73
2022/05/20 11:10:53;;;;;;;7.28;5.85;;;24.90;99.90;;;;;;5030960;28;20532;-73
2022/05/20 11:13:48;;;;;;;9.13;5.88;;;25.00;99.90;;;;;;5036761;28;20039;-73
2022/05/20 11:16:47;;;;;;;7.18;6.05;;;24.90;99.90;;;;;;5002295;28;20037;-73
2022/05/20 11:19:50;;;;;;;7.35;6.38;;;24.90;99.90;;;;;;5032530;28;20032;-73
2022/05/20 11:22:33;;;;;;;7.28;5.45;;;24.90;99.90;;;;;;5033911;28;20068;-73
2022/05/20 11:25:01;;;;;;;;;;;24.90;99.90;;;;;;5039768;28;20056;-73
2022/05/20 11:27:30;;;;;;;6.63;5.63;;;25.00;99.90;;;;;;5037468;28;20034;-72
2022/05/20 11:30:37;;;;;;;7.10;5.57;;;25.10;99.90;;;;;;5010208;28;20425;-72
2022/05/20 11:33:16;;;;;;;6.22;5.63;;;25.10;99.90;;;;;;4957358;28;20125;-72
2022/05/20 11:36:03;;;;;;;5.68;5.18;;;25.30;99.90;;;;;;4960771;28;20153;-72
2022/05/20 11:38:50;;;;;;;9.88;5.18;;;25.30;99.90;;;;;;4998675;28;20040;-72
2022/05/20 11:41:46;;;;;;;8.20;5.40;;;25.40;99.90;;;;;;5013072;28;20114;-72
2022/05/20 11:44:47;;;;;;;7.22;5.30;;;25.60;99.90;;;;;;5016810;28;20025;-72
2022/05/20 11:47:34;;;;;;;5.93;5.05;;;25.90;99.90;;;;;;5015145;28;20022;-72
2022/05/20 11:50:37;;;;;;;8.98;4.95;;;26.20;99.90;;;;;;5013982;28;20454;-72
2022/05/20 11:53:18;;;;;;;6.88;4.88;;;26.50;99.90;;;;;;5015111;28;20373;-73
2022/05/20 11:55:55;;;;;;;8.07;5.00;;;26.90;99.90;;;;;;5014111;28;20468;-73
2022/05/20 11:58:49;;;;;;;5.72;5.20;;;26.70;99.90;;;;;;5009991;28;20022;-72
2022/05/20 12:01:15;;;;;;;5.85;5.15;;;26.60;99.90;;;;;;5013479;28;20030;-72
2022/05/20 12:06:30;;;;;;;5.32;4.78;;;26.40;99.90;;;;;;5010584;28;20125;-73
2022/05/20 12:09:00;;;;;;;6.78;5.55;;;26.50;99.90;;;;;;5010715;28;20029;-73
2022/05/20 12:11:28;;;;;;;8.25;4.85;;;26.70;99.90;;;;;;5011595;28;20033;-73
2022/05/20 12:14:06;;;;;;;5.78;5.15;;;26.80;99.90;;;;;;5009830;28;20477;-73
2022/05/20 12:16:34;;;;;;;7.55;5.30;;;26.80;99.90;;;;;;5015312;28;20390;-73
2022/05/20 12:24:52;;;;;;;8.73;5.18;;;26.60;99.90;;;;;;5012425;28;20091;-73
2022/05/20 12:27:23;;;;;;;5.68;4.60;;;26.40;99.90;;;;;;5015244;28;20025;-72
2022/05/20 12:30:16;;;;;;;5.28;4.78;;;26.40;99.90;;;;;;5012741;28;20088;-73
2022/05/20 12:32:52;;;;;;;5.47;4.80;;;26.50;99.90;;;;;;5018083;28;20034;-73
2022/05/20 12:35:31;;;;;;;7.05;4.80;;;26.50;99.90;;;;;;5012204;28;20715;-73
2022/05/20 12:38:22;;;;;;;5.47;4.82;;;26.50;99.90;;;;;;5015171;28;20035;-74
2022/05/20 12:40:51;;;;;;;7.00;6.30;;;26.40;99.90;;;;;;5013870;28;20091;-73
2022/05/20 12:43:16;;;;;;;9.00;5.40;;;26.30;99.90;;;;;;5011221;28;20036;-73
2022/05/20 12:45:53;;;;;;;5.65;5.15;;;26.10;99.90;;;;;;5011628;28;20026;-73
2022/05/20 12:48:23;;;;;;;5.43;4.93;;;26.00;99.90;;;;;;5010835;28;20366;-73
2022/05/20 12:51:01;;;;;;;5.38;4.88;;;25.90;99.90;;;;;;5015578;28;20324;-73
2022/05/20 12:53:31;;;;;;;6.82;4.28;;;25.80;99.90;;;;;;5011638;28;20501;-73
2022/05/20 12:55:58;;;;;;;8.02;5.10;;;25.80;99.90;;;;;;5010560;28;20037;-72
2022/05/20 12:58:29;;;;;;;9.48;5.25;;;25.50;99.90;;;;;;5004997;28;20034;-72
2022/05/20 13:00:58;;;;;;;10.13;4.70;;;25.40;99.90;;;;;;5010598;28;20505;-73
2022/05/20 13:03:37;;;;;;;6.82;4.70;;;25.40;99.90;;;;;;5013570;28;20029;-74
2022/05/20 13:06:10;;;;;;;5.90;4.32;;;25.60;99.90;;;;;;5017754;28;20516;-74
2022/05/20 13:08:54;;;;;;;;;;;25.60;99.90;;;;;;5014686;28;20491;-73
2022/05/20 13:11:22;;;;;;;8.48;4.75;;;25.70;99.90;;;;;;5015008;28;19913;-73
2022/05/20 13:13:57;;;;;;;6.25;4.45;;;25.60;99.90;;;;;;5020148;28;20029;-74
2022/05/20 13:16:24;;;;;;;5.75;3.97;;;25.60;99.90;;;;;;5019241;28;20120;-72
2022/05/20 13:19:04;;;;;;;6.65;4.40;;;25.60;99.90;;;;;;5019003;28;20382;-72
2022/05/20 13:21:42;;;;;;;4.72;4.30;;;25.70;99.90;;;;;;5016823;28;20453;-71
2022/05/20 13:24:23;;;;;;;5.78;4.38;;;25.90;99.90;;;;;;5015530;28;20513;-71
2022/05/20 13:26:50;;;;;;;5.93;4.03;;;26.00;99.90;;;;;;5017977;28;20139;-72
2022/05/20 13:29:18;;;;;;;5.85;3.80;;;26.10;99.90;;;;;;5028665;28;20535;-72
2022/05/20 13:31:44;;;;;;;4.47;3.75;;;26.10;99.90;;;;;;5042724;28;20482;-71
2022/05/20 13:34:10;;;;;;;8.65;4.13;;;26.30;99.90;;;;;;5035054;28;20048;-72
2022/05/20 13:36:44;;;;;;;6.93;4.05;;;26.50;99.90;;;;;;5038499;28;20029;-72
2022/05/20 13:39:17;;;;;;;6.55;3.72;;;26.40;99.90;;;;;;5030959;28;20029;-72
2022/05/20 13:41:44;;;;;;;5.05;3.60;;;26.30;99.90;;;;;;5037851;28;20033;-73
2022/05/20 13:44:10;;;;;;;5.18;3.67;;;26.10;99.90;;;;;;5038874;28;20198;-73
2022/05/20 13:49:26;;;;;;;5.38;3.65;;;25.80;99.90;;;;;;5031567;28;20095;-73
2022/05/20 13:51:57;;;;;;;5.35;3.80;;;25.50;99.90;;;;;;5038234;28;20338;-72
2022/05/20 13:54:25;;;;;;;5.35;3.53;;;25.20;99.90;;;;;;5040394;28;20036;-72
2022/05/20 13:56:53;;;;;;;8.82;3.53;;;25.00;99.90;;;;;;5040819;28;20052;-73
2022/05/20 13:59:28;;;;;;;6.25;3.60;;;24.90;99.90;;;;;;5039079;28;20043;-73
2022/05/20 14:02:08;;;;;;;7.53;4.03;;;24.90;99.90;;;;;;5041597;28;20115;-73
2022/05/20 14:04:45;;;;;;;4.20;3.75;;;25.10;99.90;;;;;;5036034;28;20435;-74
2022/05/20 14:07:16;;;;;;;6.32;4.07;;;25.40;99.90;;;;;;5040688;28;20022;-73
2022/05/20 14:09:46;;;;;;;7.25;4.25;;;25.80;99.90;;;;;;5034982;28;20443;-73